sensor_id;sensor_type;location;lat;lon;timestamp;P1;durP1;ratioP1;P2;durP2;ratioP2
47659;SDS011;33403;43.608;1.458;2023-04-03T00:00:13;6.00;;;3.90;;
47659;SDS011;33403;43.608;1.458;2023-04-03T00:02:39;5.55;;;3.50;;
47659;SDS011;33403;43.608;1.458;2023-04-03T00:05:05;6.32;;;3.55;;
47659;SDS011;33403;43.608;1.458;2023-04-03T00:07:32;7.75;;;3.60;;
47659;SDS011;33403;43.608;1.458;2023-04-03T00:09:57;5.55;;;3.53;;
47659;SDS011;33403;43.608;1.458;2023-04-03T00:12:23;6.82;;;4.03;;
47659;SDS011;33403;43.608;1.458;2023-04-03T00:14:49;5.80;;;3.60;;
47659;SDS011;33403;43.608;1.458;2023-04-03T00:17:14;4.82;;;4.00;;
47659;SDS011;33403;43.608;1.458;2023-04-03T00:19:40;6.47;;;3.85;;
47659;SDS011;33403;43.608;1.458;2023-04-03T00:22:06;6.65;;;4.03;;
47659;SDS011;33403;43.608;1.458;2023-04-03T00:24:31;5.38;;;3.65;;
47659;SDS011;33403;43.608;1.458;2023-04-03T00:26:57;5.75;;;3.70;;
47659;SDS011;33403;43.608;1.458;2023-04-03T00:29:22;5.40;;;3.50;;
47659;SDS011;33403;43.608;1.458;2023-04-03T00:31:48;5.47;;;4.03;;
47659;SDS011;33403;43.608;1.458;2023-04-03T00:34:14;5.85;;;3.60;;
47659;SDS011;33403;43.608;1.458;2023-04-03T00:36:40;4.90;;;4.10;;
47659;SDS011;33403;43.608;1.458;2023-04-03T00:39:05;5.90;;;4.00;;
47659;SDS011;33403;43.608;1.458;2023-04-03T00:41:31;5.68;;;3.58;;
47659;SDS011;33403;43.608;1.458;2023-04-03T00:43:57;6.95;;;4.28;;
47659;SDS011;33403;43.608;1.458;2023-04-03T00:46:23;7.40;;;4.15;;
47659;SDS011;33403;43.608;1.458;2023-04-03T00:48:49;4.10;;;3.70;;
47659;SDS011;33403;43.608;1.458;2023-04-03T00:51:22;5.47;;;3.60;;
47659;SDS011;33403;43.608;1.458;2023-04-03T00:53:59;7.40;;;3.88;;
47659;SDS011;33403;43.608;1.458;2023-04-03T00:56:27;8.15;;;3.72;;
47659;SDS011;33403;43.608;1.458;2023-04-03T00:58:59;6.00;;;4.00;;
47659;SDS011;33403;43.608;1.458;2023-04-03T01:01:30;4.70;;;3.60;;
47659;SDS011;33403;43.608;1.458;2023-04-03T01:04:00;6.43;;;4.00;;
47659;SDS011;33403;43.608;1.458;2023-04-03T01:06:27;5.00;;;3.88;;
47659;SDS011;33403;43.608;1.458;2023-04-03T01:08:59;5.68;;;4.03;;
47659;SDS011;33403;43.608;1.458;2023-04-03T01:11:25;4.47;;;3.75;;
47659;SDS011;33403;43.608;1.458;2023-04-03T01:13:51;6.65;;;3.50;;
47659;SDS011;33403;43.608;1.458;2023-04-03T01:16:18;5.75;;;3.70;;
47659;SDS011;33403;43.608;1.458;2023-04-03T01:18:43;6.10;;;3.90;;
47659;SDS011;33403;43.608;1.458;2023-04-03T01:21:19;6.72;;;4.20;;
47659;SDS011;33403;43.608;1.458;2023-04-03T01:24:15;6.00;;;3.88;;
47659;SDS011;33403;43.608;1.458;2023-04-03T01:26:57;4.65;;;4.05;;
47659;SDS011;33403;43.608;1.458;2023-04-03T01:29:23;4.78;;;3.90;;
47659;SDS011;33403;43.608;1.458;2023-04-03T01:34:21;4.30;;;3.72;;
47659;SDS011;33403;43.608;1.458;2023-04-03T01:36:47;7.28;;;3.97;;
47659;SDS011;33403;43.608;1.458;2023-04-03T01:39:13;5.60;;;4.00;;
47659;SDS011;33403;43.608;1.458;2023-04-03T01:41:38;5.13;;;3.83;;
47659;SDS011;33403;43.608;1.458;2023-04-03T01:44:04;6.28;;;3.97;;
47659;SDS011;33403;43.608;1.458;2023-04-03T01:46:30;4.97;;;4.07;;
47659;SDS011;33403;43.608;1.458;2023-04-03T01:48:56;7.28;;;4.10;;
47659;SDS011;33403;43.608;1.458;2023-04-03T01:51:22;4.72;;;4.20;;
47659;SDS011;33403;43.608;1.458;2023-04-03T01:53:48;5.90;;;4.30;;
47659;SDS011;33403;43.608;1.458;2023-04-03T01:56:14;5.45;;;4.03;;
47659;SDS011;33403;43.608;1.458;2023-04-03T01:58:39;7.28;;;4.60;;
47659;SDS011;33403;43.608;1.458;2023-04-03T02:01:05;7.78;;;4.20;;
47659;SDS011;33403;43.608;1.458;2023-04-03T02:03:31;6.35;;;4.20;;
47659;SDS011;33403;43.608;1.458;2023-04-03T02:05:57;6.03;;;4.10;;
47659;SDS011;33403;43.608;1.458;2023-04-03T02:08:22;6.15;;;4.20;;
47659;SDS011;33403;43.608;1.458;2023-04-03T02:10:48;6.43;;;4.38;;
47659;SDS011;33403;43.608;1.458;2023-04-03T02:13:16;6.88;;;4.15;;
47659;SDS011;33403;43.608;1.458;2023-04-03T02:15:42;6.97;;;4.50;;
47659;SDS011;33403;43.608;1.458;2023-04-03T02:18:08;6.03;;;4.32;;
47659;SDS011;33403;43.608;1.458;2023-04-03T02:20:34;6.90;;;4.55;;
47659;SDS011;33403;43.608;1.458;2023-04-03T02:23:00;4.95;;;4.05;;
47659;SDS011;33403;43.608;1.458;2023-04-03T02:25:26;7.28;;;4.50;;
47659;SDS011;33403;43.608;1.458;2023-04-03T02:27:52;5.88;;;4.18;;
47659;SDS011;33403;43.608;1.458;2023-04-03T02:30:18;6.28;;;4.43;;
47659;SDS011;33403;43.608;1.458;2023-04-03T02:32:44;6.07;;;4.05;;
47659;SDS011;33403;43.608;1.458;2023-04-03T02:35:10;6.07;;;4.35;;
47659;SDS011;33403;43.608;1.458;2023-04-03T02:37:36;5.70;;;4.38;;
47659;SDS011;33403;43.608;1.458;2023-04-03T02:40:02;5.47;;;4.40;;
47659;SDS011;33403;43.608;1.458;2023-04-03T02:42:29;8.18;;;5.15;;
47659;SDS011;33403;43.608;1.458;2023-04-03T02:44:55;7.00;;;4.57;;
47659;SDS011;33403;43.608;1.458;2023-04-03T02:47:21;8.85;;;4.80;;
47659;SDS011;33403;43.608;1.458;2023-04-03T02:49:46;6.53;;;4.45;;
47659;SDS011;33403;43.608;1.458;2023-04-03T02:52:12;7.35;;;4.82;;
47659;SDS011;33403;43.608;1.458;2023-04-03T02:54:39;6.53;;;4.68;;
47659;SDS011;33403;43.608;1.458;2023-04-03T02:57:05;6.40;;;4.20;;
47659;SDS011;33403;43.608;1.458;2023-04-03T02:59:32;5.57;;;4.60;;
47659;SDS011;33403;43.608;1.458;2023-04-03T03:01:58;7.10;;;4.65;;
47659;SDS011;33403;43.608;1.458;2023-04-03T03:04:24;6.72;;;4.63;;
47659;SDS011;33403;43.608;1.458;2023-04-03T03:06:49;6.25;;;4.40;;
47659;SDS011;33403;43.608;1.458;2023-04-03T03:09:15;6.38;;;4.80;;
47659;SDS011;33403;43.608;1.458;2023-04-03T03:11:41;7.35;;;4.32;;
47659;SDS011;33403;43.608;1.458;2023-04-03T03:14:07;7.05;;;4.95;;
47659;SDS011;33403;43.608;1.458;2023-04-03T03:16:33;6.35;;;4.47;;
47659;SDS011;33403;43.608;1.458;2023-04-03T03:18:58;6.32;;;4.85;;
47659;SDS011;33403;43.608;1.458;2023-04-03T03:21:24;5.70;;;4.65;;
47659;SDS011;33403;43.608;1.458;2023-04-03T03:23:51;5.82;;;4.38;;
47659;SDS011;33403;43.608;1.458;2023-04-03T03:26:16;5.45;;;4.10;;
47659;SDS011;33403;43.608;1.458;2023-04-03T03:28:42;5.22;;;4.45;;
47659;SDS011;33403;43.608;1.458;2023-04-03T03:31:08;5.05;;;4.55;;
47659;SDS011;33403;43.608;1.458;2023-04-03T03:33:34;5.60;;;4.38;;
47659;SDS011;33403;43.608;1.458;2023-04-03T03:36:00;8.00;;;4.93;;
47659;SDS011;33403;43.608;1.458;2023-04-03T03:38:25;6.82;;;4.65;;
47659;SDS011;33403;43.608;1.458;2023-04-03T03:40:51;6.82;;;4.70;;
47659;SDS011;33403;43.608;1.458;2023-04-03T03:43:17;5.57;;;4.80;;
47659;SDS011;33403;43.608;1.458;2023-04-03T03:45:43;5.90;;;4.72;;
47659;SDS011;33403;43.608;1.458;2023-04-03T03:48:10;5.60;;;5.00;;
47659;SDS011;33403;43.608;1.458;2023-04-03T03:50:36;5.72;;;4.60;;
47659;SDS011;33403;43.608;1.458;2023-04-03T03:53:01;13.25;;;4.82;;
47659;SDS011;33403;43.608;1.458;2023-04-03T03:55:27;5.35;;;4.70;;
47659;SDS011;33403;43.608;1.458;2023-04-03T03:57:53;7.70;;;4.93;;
47659;SDS011;33403;43.608;1.458;2023-04-03T04:00:19;7.07;;;4.93;;
47659;SDS011;33403;43.608;1.458;2023-04-03T04:02:45;6.63;;;4.68;;
47659;SDS011;33403;43.608;1.458;2023-04-03T04:05:11;6.32;;;4.88;;
47659;SDS011;33403;43.608;1.458;2023-04-03T04:07:37;4.82;;;4.35;;
47659;SDS011;33403;43.608;1.458;2023-04-03T04:10:03;6.28;;;4.93;;
47659;SDS011;33403;43.608;1.458;2023-04-03T04:12:29;5.85;;;4.80;;
47659;SDS011;33403;43.608;1.458;2023-04-03T04:14:55;5.70;;;4.70;;
47659;SDS011;33403;43.608;1.458;2023-04-03T04:17:21;6.43;;;4.80;;
47659;SDS011;33403;43.608;1.458;2023-04-03T04:19:46;6.45;;;4.70;;
47659;SDS011;33403;43.608;1.458;2023-04-03T04:22:12;8.65;;;5.15;;
47659;SDS011;33403;43.608;1.458;2023-04-03T04:24:38;6.22;;;4.78;;
47659;SDS011;33403;43.608;1.458;2023-04-03T04:27:03;6.90;;;4.95;;
47659;SDS011;33403;43.608;1.458;2023-04-03T04:29:29;9.07;;;5.18;;
47659;SDS011;33403;43.608;1.458;2023-04-03T04:32:00;5.95;;;5.07;;
47659;SDS011;33403;43.608;1.458;2023-04-03T04:34:25;7.82;;;4.75;;
47659;SDS011;33403;43.608;1.458;2023-04-03T04:36:51;6.32;;;4.80;;
47659;SDS011;33403;43.608;1.458;2023-04-03T04:39:17;6.22;;;5.40;;
47659;SDS011;33403;43.608;1.458;2023-04-03T04:41:42;8.00;;;5.05;;
47659;SDS011;33403;43.608;1.458;2023-04-03T04:44:08;5.88;;;4.80;;
47659;SDS011;33403;43.608;1.458;2023-04-03T04:46:33;7.82;;;5.13;;
47659;SDS011;33403;43.608;1.458;2023-04-03T04:48:59;8.18;;;5.07;;
47659;SDS011;33403;43.608;1.458;2023-04-03T04:51:25;6.28;;;4.75;;
47659;SDS011;33403;43.608;1.458;2023-04-03T04:53:51;5.68;;;5.05;;
47659;SDS011;33403;43.608;1.458;2023-04-03T04:56:16;6.40;;;5.05;;
47659;SDS011;33403;43.608;1.458;2023-04-03T04:58:42;8.15;;;4.68;;
47659;SDS011;33403;43.608;1.458;2023-04-03T05:01:08;5.72;;;4.55;;
47659;SDS011;33403;43.608;1.458;2023-04-03T05:03:35;6.63;;;5.07;;
47659;SDS011;33403;43.608;1.458;2023-04-03T05:06:01;6.55;;;5.30;;
47659;SDS011;33403;43.608;1.458;2023-04-03T05:08:27;5.90;;;5.10;;
47659;SDS011;33403;43.608;1.458;2023-04-03T05:10:53;6.68;;;4.85;;
47659;SDS011;33403;43.608;1.458;2023-04-03T05:13:19;7.63;;;5.45;;
47659;SDS011;33403;43.608;1.458;2023-04-03T05:15:45;7.13;;;5.40;;
47659;SDS011;33403;43.608;1.458;2023-04-03T05:18:12;6.30;;;5.30;;
47659;SDS011;33403;43.608;1.458;2023-04-03T05:20:38;6.72;;;5.55;;
47659;SDS011;33403;43.608;1.458;2023-04-03T05:23:04;6.10;;;5.38;;
47659;SDS011;33403;43.608;1.458;2023-04-03T05:25:29;7.72;;;5.50;;
47659;SDS011;33403;43.608;1.458;2023-04-03T05:27:55;8.48;;;5.65;;
47659;SDS011;33403;43.608;1.458;2023-04-03T05:30:21;6.85;;;5.55;;
47659;SDS011;33403;43.608;1.458;2023-04-03T05:32:47;6.75;;;5.40;;
47659;SDS011;33403;43.608;1.458;2023-04-03T05:35:12;7.88;;;5.53;;
47659;SDS011;33403;43.608;1.458;2023-04-03T05:37:38;7.03;;;5.68;;
47659;SDS011;33403;43.608;1.458;2023-04-03T05:40:05;7.57;;;6.00;;
47659;SDS011;33403;43.608;1.458;2023-04-03T05:42:31;6.30;;;5.70;;
47659;SDS011;33403;43.608;1.458;2023-04-03T05:44:57;6.60;;;5.75;;
47659;SDS011;33403;43.608;1.458;2023-04-03T05:47:23;7.88;;;5.60;;
47659;SDS011;33403;43.608;1.458;2023-04-03T05:49:49;7.93;;;6.05;;
47659;SDS011;33403;43.608;1.458;2023-04-03T05:52:20;7.55;;;5.75;;
47659;SDS011;33403;43.608;1.458;2023-04-03T05:54:48;8.23;;;5.70;;
47659;SDS011;33403;43.608;1.458;2023-04-03T05:57:17;7.40;;;6.00;;
47659;SDS011;33403;43.608;1.458;2023-04-03T05:59:43;8.73;;;5.60;;
47659;SDS011;33403;43.608;1.458;2023-04-03T06:02:10;7.18;;;5.80;;
47659;SDS011;33403;43.608;1.458;2023-04-03T06:04:41;7.13;;;5.70;;
47659;SDS011;33403;43.608;1.458;2023-04-03T06:07:08;7.75;;;5.90;;
47659;SDS011;33403;43.608;1.458;2023-04-03T06:09:37;8.52;;;5.10;;
47659;SDS011;33403;43.608;1.458;2023-04-03T06:12:02;7.20;;;5.72;;
47659;SDS011;33403;43.608;1.458;2023-04-03T06:14:28;7.40;;;5.75;;
47659;SDS011;33403;43.608;1.458;2023-04-03T06:16:54;5.90;;;5.30;;
47659;SDS011;33403;43.608;1.458;2023-04-03T06:19:19;7.68;;;5.30;;
47659;SDS011;33403;43.608;1.458;2023-04-03T06:21:45;6.65;;;5.30;;
47659;SDS011;33403;43.608;1.458;2023-04-03T06:24:12;8.73;;;5.70;;
47659;SDS011;33403;43.608;1.458;2023-04-03T06:26:40;8.55;;;6.03;;
47659;SDS011;33403;43.608;1.458;2023-04-03T06:29:06;10.45;;;5.70;;
47659;SDS011;33403;43.608;1.458;2023-04-03T06:31:32;10.25;;;5.20;;
47659;SDS011;33403;43.608;1.458;2023-04-03T06:33:58;6.97;;;5.57;;
47659;SDS011;33403;43.608;1.458;2023-04-03T06:36:23;8.02;;;5.95;;
47659;SDS011;33403;43.608;1.458;2023-04-03T06:38:49;7.95;;;5.15;;
47659;SDS011;33403;43.608;1.458;2023-04-03T06:41:15;6.38;;;5.18;;
47659;SDS011;33403;43.608;1.458;2023-04-03T06:43:41;6.20;;;5.55;;
47659;SDS011;33403;43.608;1.458;2023-04-03T06:46:12;7.35;;;5.50;;
47659;SDS011;33403;43.608;1.458;2023-04-03T06:48:45;12.48;;;5.38;;
47659;SDS011;33403;43.608;1.458;2023-04-03T06:51:22;7.22;;;5.32;;
47659;SDS011;33403;43.608;1.458;2023-04-03T06:53:53;9.50;;;5.53;;
47659;SDS011;33403;43.608;1.458;2023-04-03T06:56:22;7.57;;;5.22;;
47659;SDS011;33403;43.608;1.458;2023-04-03T06:58:50;8.27;;;5.80;;
47659;SDS011;33403;43.608;1.458;2023-04-03T07:01:17;7.72;;;5.40;;
47659;SDS011;33403;43.608;1.458;2023-04-03T07:03:44;7.05;;;5.40;;
47659;SDS011;33403;43.608;1.458;2023-04-03T07:06:12;10.65;;;5.70;;
47659;SDS011;33403;43.608;1.458;2023-04-03T07:08:38;9.02;;;5.63;;
47659;SDS011;33403;43.608;1.458;2023-04-03T07:11:04;6.55;;;5.10;;
47659;SDS011;33403;43.608;1.458;2023-04-03T07:13:31;7.65;;;5.45;;
47659;SDS011;33403;43.608;1.458;2023-04-03T07:15:57;7.88;;;5.97;;
47659;SDS011;33403;43.608;1.458;2023-04-03T07:18:23;6.90;;;5.40;;
47659;SDS011;33403;43.608;1.458;2023-04-03T07:20:49;8.35;;;5.38;;
47659;SDS011;33403;43.608;1.458;2023-04-03T07:23:15;7.82;;;5.18;;
47659;SDS011;33403;43.608;1.458;2023-04-03T07:25:47;6.97;;;5.47;;
47659;SDS011;33403;43.608;1.458;2023-04-03T07:28:14;8.80;;;5.03;;
47659;SDS011;33403;43.608;1.458;2023-04-03T07:30:51;8.05;;;5.70;;
47659;SDS011;33403;43.608;1.458;2023-04-03T07:33:18;10.68;;;5.80;;
47659;SDS011;33403;43.608;1.458;2023-04-03T07:35:46;21.42;;;6.07;;
47659;SDS011;33403;43.608;1.458;2023-04-03T07:38:12;7.68;;;5.45;;
47659;SDS011;33403;43.608;1.458;2023-04-03T07:40:38;8.50;;;5.78;;
47659;SDS011;33403;43.608;1.458;2023-04-03T07:43:03;6.55;;;5.57;;
47659;SDS011;33403;43.608;1.458;2023-04-03T07:45:30;8.02;;;5.47;;
47659;SDS011;33403;43.608;1.458;2023-04-03T07:47:56;9.65;;;5.20;;
47659;SDS011;33403;43.608;1.458;2023-04-03T07:50:22;6.85;;;5.15;;
47659;SDS011;33403;43.608;1.458;2023-04-03T07:52:48;11.50;;;5.25;;
47659;SDS011;33403;43.608;1.458;2023-04-03T07:55:15;14.10;;;6.20;;
47659;SDS011;33403;43.608;1.458;2023-04-03T07:57:41;7.90;;;4.57;;
47659;SDS011;33403;43.608;1.458;2023-04-03T08:00:07;8.10;;;4.97;;
47659;SDS011;33403;43.608;1.458;2023-04-03T08:02:34;7.25;;;4.97;;
47659;SDS011;33403;43.608;1.458;2023-04-03T08:05:00;6.25;;;4.93;;
47659;SDS011;33403;43.608;1.458;2023-04-03T08:07:26;7.72;;;4.70;;
47659;SDS011;33403;43.608;1.458;2023-04-03T08:09:51;8.30;;;4.90;;
47659;SDS011;33403;43.608;1.458;2023-04-03T08:12:17;6.30;;;4.85;;
47659;SDS011;33403;43.608;1.458;2023-04-03T08:14:43;6.63;;;4.88;;
47659;SDS011;33403;43.608;1.458;2023-04-03T08:17:08;7.50;;;5.07;;
47659;SDS011;33403;43.608;1.458;2023-04-03T08:19:37;10.65;;;4.80;;
47659;SDS011;33403;43.608;1.458;2023-04-03T08:22:03;7.57;;;4.63;;
47659;SDS011;33403;43.608;1.458;2023-04-03T08:24:30;7.03;;;4.85;;
47659;SDS011;33403;43.608;1.458;2023-04-03T08:26:56;12.65;;;5.15;;
47659;SDS011;33403;43.608;1.458;2023-04-03T08:29:22;10.10;;;4.80;;
47659;SDS011;33403;43.608;1.458;2023-04-03T08:31:48;8.93;;;5.10;;
47659;SDS011;33403;43.608;1.458;2023-04-03T08:34:15;11.50;;;4.75;;
47659;SDS011;33403;43.608;1.458;2023-04-03T08:36:41;11.88;;;4.68;;
47659;SDS011;33403;43.608;1.458;2023-04-03T08:39:07;7.88;;;4.45;;
47659;SDS011;33403;43.608;1.458;2023-04-03T08:41:33;10.98;;;5.00;;
47659;SDS011;33403;43.608;1.458;2023-04-03T08:49:31;8.10;;;4.50;;
47659;SDS011;33403;43.608;1.458;2023-04-03T08:52:01;6.10;;;4.25;;
47659;SDS011;33403;43.608;1.458;2023-04-03T08:54:50;6.20;;;4.15;;
47659;SDS011;33403;43.608;1.458;2023-04-03T08:57:20;5.47;;;4.40;;
47659;SDS011;33403;43.608;1.458;2023-04-03T08:59:52;9.15;;;4.60;;
47659;SDS011;33403;43.608;1.458;2023-04-03T09:02:26;8.40;;;4.30;;
47659;SDS011;33403;43.608;1.458;2023-04-03T09:04:57;8.27;;;4.18;;
47659;SDS011;33403;43.608;1.458;2023-04-03T09:07:30;7.22;;;4.53;;
47659;SDS011;33403;43.608;1.458;2023-04-03T09:10:01;7.07;;;4.20;;
47659;SDS011;33403;43.608;1.458;2023-04-03T09:12:31;12.35;;;4.22;;
47659;SDS011;33403;43.608;1.458;2023-04-03T09:22:57;4.82;;;3.95;;
47659;SDS011;33403;43.608;1.458;2023-04-03T09:25:32;5.95;;;3.55;;
47659;SDS011;33403;43.608;1.458;2023-04-03T09:28:01;6.90;;;3.83;;
47659;SDS011;33403;43.608;1.458;2023-04-03T09:30:28;6.00;;;3.22;;
47659;SDS011;33403;43.608;1.458;2023-04-03T09:32:55;7.53;;;3.78;;
47659;SDS011;33403;43.608;1.458;2023-04-03T09:35:55;7.32;;;3.38;;
47659;SDS011;33403;43.608;1.458;2023-04-03T09:40:42;5.53;;;3.47;;
47659;SDS011;33403;43.608;1.458;2023-04-03T09:43:33;7.10;;;3.40;;
47659;SDS011;33403;43.608;1.458;2023-04-03T09:49:03;7.25;;;3.50;;
47659;SDS011;33403;43.608;1.458;2023-04-03T09:51:30;5.32;;;3.30;;
47659;SDS011;33403;43.608;1.458;2023-04-03T09:53:57;6.57;;;3.53;;
47659;SDS011;33403;43.608;1.458;2023-04-03T10:01:30;5.82;;;3.30;;
47659;SDS011;33403;43.608;1.458;2023-04-03T10:06:41;4.03;;;3.10;;
47659;SDS011;33403;43.608;1.458;2023-04-03T10:09:20;4.80;;;2.90;;
47659;SDS011;33403;43.608;1.458;2023-04-03T10:14:26;4.90;;;2.80;;
47659;SDS011;33403;43.608;1.458;2023-04-03T10:16:59;4.95;;;2.70;;
47659;SDS011;33403;43.608;1.458;2023-04-03T10:33:28;3.30;;;2.60;;
47659;SDS011;33403;43.608;1.458;2023-04-03T10:45:15;3.13;;;2.35;;
47659;SDS011;33403;43.608;1.458;2023-04-03T10:47:56;3.10;;;2.50;;
47659;SDS011;33403;43.608;1.458;2023-04-03T10:50:53;4.22;;;2.38;;
47659;SDS011;33403;43.608;1.458;2023-04-03T11:01:45;3.25;;;2.33;;
47659;SDS011;33403;43.608;1.458;2023-04-03T11:04:20;4.60;;;2.15;;
47659;SDS011;33403;43.608;1.458;2023-04-03T11:09:26;3.72;;;1.73;;
47659;SDS011;33403;43.608;1.458;2023-04-03T11:12:00;2.95;;;1.80;;
47659;SDS011;33403;43.608;1.458;2023-04-03T11:14:35;3.97;;;2.00;;
47659;SDS011;33403;43.608;1.458;2023-04-03T11:17:19;3.75;;;2.10;;
47659;SDS011;33403;43.608;1.458;2023-04-03T11:22:23;2.25;;;1.80;;
47659;SDS011;33403;43.608;1.458;2023-04-03T11:24:57;2.08;;;1.80;;
47659;SDS011;33403;43.608;1.458;2023-04-03T11:27:30;3.60;;;1.70;;
47659;SDS011;33403;43.608;1.458;2023-04-03T11:30:05;3.55;;;1.70;;
47659;SDS011;33403;43.608;1.458;2023-04-03T11:35:47;3.05;;;1.50;;
47659;SDS011;33403;43.608;1.458;2023-04-03T11:38:35;2.30;;;1.70;;
47659;SDS011;33403;43.608;1.458;2023-04-03T11:41:06;4.07;;;2.22;;
47659;SDS011;33403;43.608;1.458;2023-04-03T11:43:33;2.22;;;1.63;;
47659;SDS011;33403;43.608;1.458;2023-04-03T11:46:21;3.90;;;2.10;;
47659;SDS011;33403;43.608;1.458;2023-04-03T11:48:47;4.85;;;2.15;;
47659;SDS011;33403;43.608;1.458;2023-04-03T11:53:46;3.25;;;1.90;;
47659;SDS011;33403;43.608;1.458;2023-04-03T12:01:50;3.00;;;2.20;;
47659;SDS011;33403;43.608;1.458;2023-04-03T12:04:22;3.85;;;2.35;;
47659;SDS011;33403;43.608;1.458;2023-04-03T12:06:53;5.00;;;2.42;;
47659;SDS011;33403;43.608;1.458;2023-04-03T12:14:53;5.20;;;2.65;;
47659;SDS011;33403;43.608;1.458;2023-04-03T12:17:27;5.07;;;2.60;;
47659;SDS011;33403;43.608;1.458;2023-04-03T12:19:54;4.45;;;2.55;;
47659;SDS011;33403;43.608;1.458;2023-04-03T12:22:20;3.53;;;2.00;;
47659;SDS011;33403;43.608;1.458;2023-04-03T12:24:47;5.65;;;2.20;;
47659;SDS011;33403;43.608;1.458;2023-04-03T12:27:22;3.80;;;2.08;;
47659;SDS011;33403;43.608;1.458;2023-04-03T12:32:41;4.38;;;1.90;;
47659;SDS011;33403;43.608;1.458;2023-04-03T12:35:35;3.10;;;1.88;;
47659;SDS011;33403;43.608;1.458;2023-04-03T12:38:15;3.53;;;2.13;;
47659;SDS011;33403;43.608;1.458;2023-04-03T12:46:50;3.05;;;2.03;;
47659;SDS011;33403;43.608;1.458;2023-04-03T12:51:51;3.92;;;2.28;;
47659;SDS011;33403;43.608;1.458;2023-04-03T12:56:52;3.90;;;2.35;;
47659;SDS011;33403;43.608;1.458;2023-04-03T12:59:48;7.22;;;2.50;;
47659;SDS011;33403;43.608;1.458;2023-04-03T13:02:18;3.65;;;2.30;;
47659;SDS011;33403;43.608;1.458;2023-04-03T13:04:48;2.88;;;2.28;;
47659;SDS011;33403;43.608;1.458;2023-04-03T13:07:20;4.13;;;2.13;;
47659;SDS011;33403;43.608;1.458;2023-04-03T13:10:35;3.30;;;2.10;;
47659;SDS011;33403;43.608;1.458;2023-04-03T13:12:34;4.45;;;2.00;;
47659;SDS011;33403;43.608;1.458;2023-04-03T13:15:02;3.13;;;1.98;;
47659;SDS011;33403;43.608;1.458;2023-04-03T13:17:41;4.18;;;2.00;;
47659;SDS011;33403;43.608;1.458;2023-04-03T13:20:11;3.53;;;2.13;;
47659;SDS011;33403;43.608;1.458;2023-04-03T13:22:55;3.72;;;2.13;;
47659;SDS011;33403;43.608;1.458;2023-04-03T13:25:28;4.25;;;2.15;;
47659;SDS011;33403;43.608;1.458;2023-04-03T13:27:57;4.05;;;2.08;;
47659;SDS011;33403;43.608;1.458;2023-04-03T13:30:29;3.40;;;2.00;;
47659;SDS011;33403;43.608;1.458;2023-04-03T13:32:58;4.05;;;2.13;;
47659;SDS011;33403;43.608;1.458;2023-04-03T13:35:32;4.40;;;2.30;;
47659;SDS011;33403;43.608;1.458;2023-04-03T13:38:21;3.47;;;2.00;;
47659;SDS011;33403;43.608;1.458;2023-04-03T13:40:50;4.43;;;2.13;;
47659;SDS011;33403;43.608;1.458;2023-04-03T13:43:21;5.40;;;2.58;;
47659;SDS011;33403;43.608;1.458;2023-04-03T13:48:35;7.13;;;2.30;;
47659;SDS011;33403;43.608;1.458;2023-04-03T13:53:44;2.80;;;2.10;;
47659;SDS011;33403;43.608;1.458;2023-04-03T13:58:53;3.38;;;1.90;;
47659;SDS011;33403;43.608;1.458;2023-04-03T14:01:20;5.68;;;2.78;;
47659;SDS011;33403;43.608;1.458;2023-04-03T14:04:00;3.15;;;2.40;;
47659;SDS011;33403;43.608;1.458;2023-04-03T14:06:35;4.13;;;2.13;;
47659;SDS011;33403;43.608;1.458;2023-04-03T14:09:00;2.95;;;1.90;;
47659;SDS011;33403;43.608;1.458;2023-04-03T14:11:28;4.72;;;2.70;;
47659;SDS011;33403;43.608;1.458;2023-04-03T14:13:56;4.38;;;2.17;;
47659;SDS011;33403;43.608;1.458;2023-04-03T14:16:26;4.43;;;2.28;;
47659;SDS011;33403;43.608;1.458;2023-04-03T14:18:55;4.25;;;2.30;;
47659;SDS011;33403;43.608;1.458;2023-04-03T14:21:21;4.43;;;2.20;;
47659;SDS011;33403;43.608;1.458;2023-04-03T14:23:48;4.43;;;2.33;;
47659;SDS011;33403;43.608;1.458;2023-04-03T14:26:16;4.38;;;2.30;;
47659;SDS011;33403;43.608;1.458;2023-04-03T14:28:44;4.15;;;2.40;;
47659;SDS011;33403;43.608;1.458;2023-04-03T14:31:12;6.45;;;2.50;;
47659;SDS011;33403;43.608;1.458;2023-04-03T14:33:38;3.17;;;2.00;;
47659;SDS011;33403;43.608;1.458;2023-04-03T14:36:17;4.15;;;2.42;;
47659;SDS011;33403;43.608;1.458;2023-04-03T14:38:50;4.70;;;2.22;;
47659;SDS011;33403;43.608;1.458;2023-04-03T14:41:17;6.20;;;2.42;;
47659;SDS011;33403;43.608;1.458;2023-04-03T14:43:47;3.88;;;2.40;;
47659;SDS011;33403;43.608;1.458;2023-04-03T14:46:18;3.45;;;2.20;;
47659;SDS011;33403;43.608;1.458;2023-04-03T14:48:47;3.28;;;2.35;;
47659;SDS011;33403;43.608;1.458;2023-04-03T14:51:13;5.18;;;2.58;;
47659;SDS011;33403;43.608;1.458;2023-04-03T14:53:40;3.72;;;2.33;;
47659;SDS011;33403;43.608;1.458;2023-04-03T14:56:11;4.30;;;2.58;;
47659;SDS011;33403;43.608;1.458;2023-04-03T14:58:42;4.05;;;2.40;;
47659;SDS011;33403;43.608;1.458;2023-04-03T15:01:09;3.20;;;2.38;;
47659;SDS011;33403;43.608;1.458;2023-04-03T15:03:37;3.97;;;2.30;;
47659;SDS011;33403;43.608;1.458;2023-04-03T15:06:03;4.13;;;2.63;;
47659;SDS011;33403;43.608;1.458;2023-04-03T15:08:28;4.20;;;2.50;;
47659;SDS011;33403;43.608;1.458;2023-04-03T15:10:55;10.38;;;4.63;;
47659;SDS011;33403;43.608;1.458;2023-04-03T15:13:21;6.05;;;3.03;;
47659;SDS011;33403;43.608;1.458;2023-04-03T15:15:48;5.03;;;2.30;;
47659;SDS011;33403;43.608;1.458;2023-04-03T15:18:17;5.10;;;2.90;;
47659;SDS011;33403;43.608;1.458;2023-04-03T15:20:45;4.55;;;2.70;;
47659;SDS011;33403;43.608;1.458;2023-04-03T15:23:12;3.38;;;2.30;;
47659;SDS011;33403;43.608;1.458;2023-04-03T15:25:38;5.78;;;2.63;;
47659;SDS011;33403;43.608;1.458;2023-04-03T15:28:04;4.50;;;2.13;;
47659;SDS011;33403;43.608;1.458;2023-04-03T15:30:31;4.07;;;2.20;;
47659;SDS011;33403;43.608;1.458;2023-04-03T15:32:56;4.22;;;2.90;;
47659;SDS011;33403;43.608;1.458;2023-04-03T15:35:22;3.25;;;2.30;;
47659;SDS011;33403;43.608;1.458;2023-04-03T15:37:48;6.07;;;2.20;;
47659;SDS011;33403;43.608;1.458;2023-04-03T15:40:13;3.88;;;2.13;;
47659;SDS011;33403;43.608;1.458;2023-04-03T15:42:39;5.38;;;2.40;;
47659;SDS011;33403;43.608;1.458;2023-04-03T15:45:05;4.63;;;2.30;;
47659;SDS011;33403;43.608;1.458;2023-04-03T15:47:32;3.55;;;2.35;;
47659;SDS011;33403;43.608;1.458;2023-04-03T15:49:58;3.22;;;2.40;;
47659;SDS011;33403;43.608;1.458;2023-04-03T15:52:23;5.35;;;3.40;;
47659;SDS011;33403;43.608;1.458;2023-04-03T15:54:49;4.90;;;3.75;;
47659;SDS011;33403;43.608;1.458;2023-04-03T15:57:15;4.53;;;2.67;;
47659;SDS011;33403;43.608;1.458;2023-04-03T15:59:40;5.80;;;2.50;;
47659;SDS011;33403;43.608;1.458;2023-04-03T16:02:06;6.20;;;2.35;;
47659;SDS011;33403;43.608;1.458;2023-04-03T16:04:35;6.13;;;3.20;;
47659;SDS011;33403;43.608;1.458;2023-04-03T16:07:04;4.60;;;3.20;;
47659;SDS011;33403;43.608;1.458;2023-04-03T16:09:31;3.47;;;2.88;;
47659;SDS011;33403;43.608;1.458;2023-04-03T16:11:57;3.20;;;2.40;;
47659;SDS011;33403;43.608;1.458;2023-04-03T16:14:23;3.97;;;2.22;;
47659;SDS011;33403;43.608;1.458;2023-04-03T16:16:49;4.15;;;2.40;;
47659;SDS011;33403;43.608;1.458;2023-04-03T16:19:15;4.40;;;2.47;;
47659;SDS011;33403;43.608;1.458;2023-04-03T16:21:40;4.95;;;2.65;;
47659;SDS011;33403;43.608;1.458;2023-04-03T16:24:06;3.58;;;2.40;;
47659;SDS011;33403;43.608;1.458;2023-04-03T16:26:32;3.45;;;2.20;;
47659;SDS011;33403;43.608;1.458;2023-04-03T16:28:58;4.00;;;2.70;;
47659;SDS011;33403;43.608;1.458;2023-04-03T16:31:23;4.22;;;2.80;;
47659;SDS011;33403;43.608;1.458;2023-04-03T16:33:50;6.22;;;2.90;;
47659;SDS011;33403;43.608;1.458;2023-04-03T16:36:16;3.95;;;2.60;;
47659;SDS011;33403;43.608;1.458;2023-04-03T16:38:42;4.45;;;2.20;;
47659;SDS011;33403;43.608;1.458;2023-04-03T16:41:08;3.40;;;2.13;;